AirNav   Everest Fuels
 
 304 users online  

3CL5 Chase Plaza Heliport
Los Angeles, California, USA

GOING TO LOS ANGELES?


FAA INFORMATION EFFECTIVE 15 AUGUST 2019

Location

FAA Identifier: 3CL5
Lat/Long: 34-02-44.2300N 118-15-31.1700W
34-02.737167N 118-15.519500W
34.0456194,-118.2586583
(estimated)
Elevation: 412 ft. / 126 m (estimated)
Variation: 14E (1990)
Time zone: UTC -7 (UTC -8 during Standard Time)
Zip code: 90015

Heliport Operations

Heliport use: Private use. Permission required prior to landing
Activation date: 04/1993
Control tower: no
ARTCC: LOS ANGELES CENTER
FSS: HAWTHORNE FLIGHT SERVICE STATION
Attendance: UNATNDD
Segmented circle: no

Heliport Communications

WX ASOS at HHR (8 nm SW): PHONE 310-973-8930
WX AWOS-3PT at CPM (9 nm S): 127.150 (310-631-4958)
WX ASOS at LAX (10 nm SW): PHONE 310-568-1486
WX ASOS at SMO (10 nm W): PHONE 310-392-6453
WX ASOS at BUR (11 nm NW): PHONE 818-841-1384
WX AWOS-3PT at EMT (11 nm E): 118.75 ((626) 444-1107)
WX ASOS at LGB (15 nm S): PHONE 562-424-0572
WX AWOS-3PT at WHP (15 nm NW): 132.1 (818-899-9820)
WX ASOS at VNY (15 nm NW): PHONE 818-904-9213
WX ASOS at FUL (17 nm SE): PHONE 714-870-1372

Nearby radio navigation aids

VOR radial/distance  VOR name  Freq  Var
SMOr063/10.1SANTA MONICA VOR/DME110.8015E
LAXr037/11.0LOS ANGELES VORTAC113.6015E
VNYr118/15.7VAN NUYS VOR/DME113.1015E
SLIr312/18.7SEAL BEACH VORTAC115.7015E
POMr250/23.5POMONA VORTAC110.4015E
ELBr296/34.4EL TORO VOR/DME117.2014E
FIMr106/36.1FILLMORE VORTAC112.5015E
PMDr180/36.4PALMDALE VORTAC114.5015E
PDZr267/37.0PARADISE VORTAC112.2015E
VTUr081/39.5VENTURA VOR/DME108.2015E

Heliport Services

Runway Information

Helipad H1

Dimensions: 50 x 50 ft. / 15 x 15 m
Surface: asphalt
Latitude: 34-02.737167N
Longitude: 118-15.519500W
Elevation: 412.0 ft.
Traffic pattern: leftleft

Heliport Ownership and Management from official FAA records

Ownership: Privately-owned
Owner: SHUWA INVEST. CORP.
8701 DELGANY AVE.
PLAYA DEL REY, CA 90293
Phone 213-823-4346

Additional Remarks

FOR CD CTC LOS ANGELES ARTCC AT 661-575-2079.

Instrument Procedures

There are no published instrument procedures at 3CL5.

Some nearby airports with instrument procedures:

KHHR - Jack Northrop Field/Hawthorne Municipal Airport (8 nm SW)
KLAX - Los Angeles International Airport (10 nm SW)
KSMO - Santa Monica Municipal Airport (10 nm W)
KBUR - Bob Hope Airport (11 nm NW)
KEMT - San Gabriel Valley Airport (11 nm E)
KLGB - Long Beach Airport (Daugherty Field) (15 nm S)
KWHP - Whiteman Airport (15 nm NW)
KTOA - Zamperini Field Airport (15 nm S)
KVNY - Van Nuys Airport (15 nm NW)
KFUL - Fullerton Municipal Airport (17 nm SE)
 
Loc | Ops | Rwys | IFR | FBO | Links
Com | Nav | Svcs | Stats | Notes
Area around 3CL5 (Chase Plaza Heliport)
 
Road maps at: MapQuest Bing Google
 
Aerial photo
No photo
 
Sectional chart

 
Airport distance calculator
Flying to Chase Plaza Heliport? Find the distance to fly.

From to 3CL5

Sunrise and sunset
Times for 19-Aug-2019
 Local
(UTC-7)
 Zulu
(UTC)
Morning civil twilight05:5212:52
Sunrise06:1813:18
Sunset19:3502:35
Evening civil twilight20:0103:01

Current date and time
Zulu (UTC)  20-Aug-2019 06:40:01
Local (UTC-7)  19-Aug-2019 23:40:01
 
METAR
KCQT 200552Z AUTO 00000KT 10SM CLR 20/16 A2991 RMK AO2 SLP126 T02000156 10250 20194 52007 $
KHHR 
9nm SW 
200553Z AUTO 24004KT 10SM CLR 20/16 A2992 RMK AO2 SLP129 T02000156 10228 20194 51006
KLAX 
9nm SW 
200553Z 24004KT 10SM FEW004 21/16 A2991 RMK AO2 SLP126 FU FEW004 T02060161 10228 20200 50004
KSMO 
10nm W 
200551Z AUTO 00000KT 10SM CLR 18/17 A2991 RMK AO2 SLP128 T01830172 10217 20183 52006
KBUR 
11nm NW 
200553Z 14004KT 10SM CLR 21/12 A2992 RMK AO2 SLP119 T02060117 10289 20206 51009 $
KEMT 
12nm E 
200257Z 21007KT 10SM CLR 23/16 A2989
KWHP 
15nm NW 
200250Z 12004KT 10SM SKC 25/14 A2992
KLGB 
15nm S 
200553Z 32003KT 10SM CLR 20/16 A2992 RMK AO2 SLP130 T02000156 10267 20200 51010
KVNY 
15nm NW 
200551Z AUTO 00000KT 10SM CLR 23/14 A2991 RMK AO2 SLP120 T02280139 10311 20228 51008
KTOA 
16nm S 
200252Z 26009KT 10SM SCT010 18/16 A2989
TAF
KLAX 
9nm SW 
200535Z 2006/2112 26006KT P6SM SKC FM200800 VRB03KT P6SM SKC FM201200 VRB03KT 5SM BR OVC008 FM201500 VRB03KT 6SM BR OVC012 FM201700 25006KT P6SM SCT015 FM202000 26012KT P6SM SKC FM210400 26006KT P6SM SKC FM210800 VRB03KT P6SM SKC
KSMO 
10nm W 
200535Z 2006/2106 VRB03KT P6SM SKC FM201300 VRB03KT 5SM BR OVC008 FM201700 VRB03KT P6SM FEW012 FM201900 24008KT P6SM SKC
KBUR 
11nm NW 
200535Z 2006/2106 VRB03KT P6SM SKC FM202000 17008KT P6SM SKC FM210500 VRB03KT P6SM SKC
KLGB 
15nm S 
200535Z 2006/2106 VRB03KT P6SM SKC FM201100 VRB03KT 5SM BR OVC008 FM201500 VRB03KT 6SM BR OVC012 FM201700 VRB03KT P6SM SKC FM201900 19008KT P6SM SKC FM202300 30008KT P6SM SKC FM210500 VRB03KT P6SM SKC
KVNY 
15nm NW 
200535Z 2006/2106 VRB03KT P6SM SKC FM202100 16008KT P6SM SKC FM210400 VRB03KT P6SM SKC
NOTAMs
Click for the latest NOTAMs
NOTAMs are issued by the DoD/FAA and will open in a separate window not controlled by AirNav.

 

 
 

Would you like to see your business listed on this page?

 If your business provides an interesting product or service to pilots, flight crews, aircraft, or users of the Chase Plaza Heliport, you should consider listing it here.  To start the listing process, click on the button below
 
Add a business
 

Other Pages about Chase Plaza Heliport

Update a link
 
Copyright © AirNav, LLC. All rights reserved. Privacy Policy  Contact